createdAt,value
2018-09-23T00:00:49.013Z,3.43
2018-09-23T00:03:17.066Z,4.33
2018-09-23T00:05:45.153Z,4.73
2018-09-23T00:08:13.224Z,5.03
2018-09-23T00:10:41.328Z,4.37
2018-09-23T00:13:09.357Z,5.17
2018-09-23T00:15:37.378Z,5.33
2018-09-23T00:18:05.825Z,3.90
2018-09-23T00:20:34.202Z,4.90
2018-09-23T00:23:02.466Z,4.90
2018-09-23T00:25:30.561Z,7.20
2018-09-23T00:27:58.781Z,5.10
2018-09-23T00:30:26.811Z,4.80
2018-09-23T00:32:54.857Z,5.50
2018-09-23T00:35:22.888Z,4.90
2018-09-23T00:37:50.996Z,6.47
2018-09-23T00:40:19.229Z,5.93
2018-09-23T00:42:47.293Z,6.90
2018-09-23T00:45:15.353Z,6.47
2018-09-23T00:47:43.423Z,7.33
2018-09-23T00:50:11.495Z,7.10
2018-09-23T00:52:39.485Z,8.53
2018-09-23T00:55:07.537Z,7.33
2018-09-23T00:57:35.564Z,8.13
2018-09-23T01:00:04.368Z,9.00
2018-09-23T01:02:32.498Z,12.63
2018-09-23T01:05:00.542Z,13.10
2018-09-23T01:07:28.661Z,9.70
2018-09-23T01:09:56.729Z,9.17
2018-09-23T01:12:24.746Z,7.73
2018-09-23T01:14:52.793Z,8.93
2018-09-23T01:17:20.832Z,9.00
2018-09-23T01:19:48.857Z,12.60
2018-09-23T01:22:16.976Z,9.47
2018-09-23T01:24:45.025Z,9.17
2018-09-23T01:27:13.075Z,8.10
2018-09-23T01:29:41.102Z,9.93
2018-09-23T01:32:09.147Z,10.67
2018-09-23T01:34:37.181Z,9.70
2018-09-23T01:37:05.217Z,12.43
2018-09-23T01:39:34.122Z,10.60
2018-09-23T01:42:02.185Z,10.10
2018-09-23T01:44:30.210Z,11.10
2018-09-23T01:46:58.335Z,15.20
2018-09-23T01:49:26.337Z,10.43
2018-09-23T01:51:54.361Z,13.43
2018-09-23T01:54:22.380Z,10.93
2018-09-23T01:56:50.567Z,15.67
2018-09-23T01:59:18.601Z,13.03
2018-09-23T02:01:46.678Z,10.50
2018-09-23T02:04:14.698Z,14.27
2018-09-23T02:06:42.723Z,9.60
2018-09-23T02:09:10.817Z,12.10
2018-09-23T02:11:38.976Z,11.60
2018-09-23T02:14:07.085Z,15.87
2018-09-23T02:16:35.104Z,11.10
2018-09-23T02:19:03.154Z,9.27
2018-09-23T02:21:31.251Z,15.43
2018-09-23T02:23:59.470Z,13.27
2018-09-23T02:26:27.470Z,7.03
2018-09-23T02:28:55.500Z,11.40
2018-09-23T02:31:23.565Z,13.23
2018-09-23T02:33:51.665Z,9.43
2018-09-23T02:36:19.659Z,10.07
2018-09-23T02:38:47.721Z,9.90
2018-09-23T02:41:15.763Z,9.50
2018-09-23T02:43:43.974Z,13.10
2018-09-23T02:46:11.985Z,13.87
2018-09-23T02:48:40.122Z,9.37
2018-09-23T02:51:08.173Z,11.43
2018-09-23T02:53:36.220Z,11.00
2018-09-23T02:56:04.244Z,12.50
2018-09-23T02:58:32.637Z,11.40
2018-09-23T03:01:00.638Z,11.73
2018-09-23T03:03:28.689Z,10.97
2018-09-23T03:05:56.698Z,11.50
2018-09-23T03:08:24.750Z,14.53
2018-09-23T03:10:52.820Z,12.07
2018-09-23T03:13:20.868Z,12.33
2018-09-23T03:15:48.896Z,9.03
2018-09-23T03:18:16.917Z,7.73
2018-09-23T03:20:44.982Z,11.30
2018-09-23T03:23:13.013Z,10.80
2018-09-23T03:25:41.048Z,9.93
2018-09-23T03:28:09.054Z,7.50
2018-09-23T03:30:37.134Z,7.77
2018-09-23T03:33:05.182Z,8.20
2018-09-23T03:35:33.353Z,6.90
2018-09-23T03:38:01.384Z,10.57
2018-09-23T03:40:29.416Z,10.17
2018-09-23T03:42:57.541Z,10.30
2018-09-23T03:45:25.619Z,7.90
2018-09-23T03:47:53.640Z,8.20
2018-09-23T03:50:21.677Z,9.70
2018-09-23T03:52:49.705Z,7.60
2018-09-23T03:55:17.842Z,7.03
2018-09-23T03:57:45.838Z,6.67
2018-09-23T04:00:13.842Z,8.70
2018-09-23T04:02:44.850Z,6.50
2018-09-23T04:05:12.865Z,8.13
2018-09-23T04:07:40.918Z,6.50
2018-09-23T04:10:08.965Z,6.80
2018-09-23T04:12:36.978Z,5.07
2018-09-23T04:15:05.089Z,4.97
2018-09-23T04:17:33.133Z,6.63
2018-09-23T04:20:01.165Z,4.90
2018-09-23T04:22:29.228Z,5.27
2018-09-23T04:24:57.329Z,6.90
2018-09-23T04:27:25.360Z,5.73
2018-09-23T04:29:53.362Z,5.90
2018-09-23T04:32:21.424Z,6.17
2018-09-23T04:34:49.469Z,6.93
2018-09-23T04:37:17.472Z,5.10
2018-09-23T04:39:45.548Z,6.20
2018-09-23T04:42:13.583Z,4.90
2018-09-23T04:44:41.721Z,6.97
2018-09-23T04:47:09.737Z,4.97
2018-09-23T04:49:37.750Z,4.20
2018-09-23T04:52:05.754Z,4.07
2018-09-23T04:54:33.801Z,4.77
2018-09-23T04:57:01.964Z,3.20
2018-09-23T04:59:29.981Z,3.63
2018-09-23T05:01:58.000Z,4.57
2018-09-23T05:04:26.024Z,3.50
2018-09-23T05:06:54.051Z,4.40
2018-09-23T05:09:22.105Z,4.17
2018-09-23T05:11:50.229Z,3.77
2018-09-23T05:14:18.236Z,2.73
2018-09-23T05:16:46.262Z,3.23
2018-09-23T05:19:14.263Z,3.67
2018-09-23T05:21:42.285Z,2.70
2018-09-23T05:24:10.288Z,2.90
2018-09-23T05:26:38.296Z,3.10
2018-09-23T05:29:06.328Z,3.23
2018-09-23T05:31:34.413Z,3.47
2018-09-23T05:34:02.426Z,2.53
2018-09-23T05:36:30.472Z,3.33
2018-09-23T05:38:58.505Z,3.13
2018-09-23T05:41:26.537Z,2.87
2018-09-23T05:43:54.608Z,2.93
2018-09-23T05:46:22.646Z,2.50
2018-09-23T05:48:50.773Z,2.33
2018-09-23T05:51:19.677Z,1.77
2018-09-23T05:53:47.788Z,2.10
2018-09-23T05:56:15.884Z,2.10
2018-09-23T05:58:43.904Z,2.47
2018-09-23T06:01:11.962Z,2.80
2018-09-23T06:03:39.987Z,3.03
2018-09-23T06:06:08.059Z,2.47
2018-09-23T06:08:36.172Z,3.30
2018-09-23T06:11:04.290Z,3.20
2018-09-23T06:13:32.399Z,3.13
2018-09-23T06:16:00.416Z,3.10
2018-09-23T06:18:28.461Z,2.80
2018-09-23T06:20:56.473Z,2.03
2018-09-23T06:23:24.513Z,3.17
2018-09-23T06:25:52.516Z,3.10
2018-09-23T06:28:20.533Z,2.90
2018-09-23T06:30:48.526Z,2.63
2018-09-23T06:33:16.781Z,2.50
2018-09-23T06:35:44.805Z,2.40
2018-09-23T06:38:12.852Z,3.00
2018-09-23T06:40:40.880Z,2.50
2018-09-23T06:43:08.995Z,2.50
2018-09-23T06:45:37.049Z,3.30
2018-09-23T06:48:05.081Z,4.23
2018-09-23T06:50:33.162Z,3.87
2018-09-23T06:53:01.227Z,3.23
2018-09-23T06:55:29.248Z,1.83
2018-09-23T06:57:57.315Z,3.40
2018-09-23T07:00:25.312Z,4.20
2018-09-23T07:02:53.469Z,3.37
2018-09-23T07:05:21.743Z,3.00
2018-09-23T07:07:49.786Z,2.70
2018-09-23T07:10:18.004Z,3.03
2018-09-23T07:12:45.996Z,3.20
2018-09-23T07:15:14.054Z,2.70
2018-09-23T07:17:42.933Z,2.63
2018-09-23T07:20:11.072Z,2.60
2018-09-23T07:22:39.121Z,3.03
2018-09-23T07:25:07.213Z,2.77
2018-09-23T07:27:35.263Z,3.53
2018-09-23T07:30:03.627Z,4.63
2018-09-23T07:32:31.921Z,3.70
2018-09-23T07:35:00.061Z,3.77
2018-09-23T07:37:28.111Z,4.23
2018-09-23T07:39:56.397Z,3.77
2018-09-23T07:42:24.376Z,4.60
2018-09-23T07:44:52.457Z,3.30
2018-09-23T07:47:20.520Z,4.43
2018-09-23T07:49:48.649Z,3.90
2018-09-23T07:52:16.723Z,3.37
2018-09-23T07:54:44.871Z,2.80
2018-09-23T07:57:12.921Z,4.93
2018-09-23T07:59:41.105Z,3.27
2018-09-23T08:02:09.248Z,3.40
2018-09-23T08:04:37.285Z,2.80
2018-09-23T08:07:05.346Z,3.63
2018-09-23T08:09:33.398Z,3.10
2018-09-23T08:12:01.486Z,4.20
2018-09-23T08:14:29.907Z,3.40
2018-09-23T08:16:58.555Z,3.27
2018-09-23T08:19:26.694Z,2.67
2018-09-23T08:21:54.759Z,3.10
2018-09-23T08:24:22.822Z,2.43
2018-09-23T08:26:50.924Z,2.33
2018-09-23T08:29:19.073Z,2.53
2018-09-23T08:31:47.202Z,2.50
2018-09-23T08:34:15.498Z,2.47
2018-09-23T08:36:43.532Z,2.67
2018-09-23T08:39:11.594Z,2.33
2018-09-23T08:41:39.669Z,3.00
2018-09-23T08:44:07.880Z,3.60
2018-09-23T08:46:35.974Z,2.50
2018-09-23T08:49:04.241Z,3.40
2018-09-23T08:51:32.505Z,3.27
2018-09-23T08:54:00.578Z,3.77
2018-09-23T08:56:28.646Z,4.10
2018-09-23T08:58:56.725Z,3.90
2018-09-23T09:01:24.747Z,3.37
2018-09-23T09:03:52.825Z,3.10
2018-09-23T09:06:20.852Z,3.57
2018-09-23T09:08:48.906Z,3.53
2018-09-23T09:11:16.955Z,3.67
2018-09-23T09:13:45.121Z,4.00
2018-09-23T09:16:13.204Z,4.27
2018-09-23T09:18:41.567Z,2.80
2018-09-23T09:21:09.393Z,3.37
2018-09-23T09:23:37.541Z,4.27
2018-09-23T09:26:05.742Z,3.33
2018-09-23T09:28:33.904Z,3.77
2018-09-23T09:31:02.004Z,5.90
2018-09-23T09:33:30.201Z,3.70
2018-09-23T09:35:58.385Z,6.00
2018-09-23T09:38:26.499Z,4.50
2018-09-23T09:40:54.574Z,6.00
2018-09-23T09:43:22.699Z,4.90
2018-09-23T09:45:50.800Z,5.43
2018-09-23T09:48:18.906Z,7.43
2018-09-23T09:50:46.970Z,6.23
2018-09-23T09:53:15.106Z,9.57
2018-09-23T09:55:43.202Z,5.87
2018-09-23T09:58:11.263Z,6.57
2018-09-23T10:00:39.365Z,7.77
2018-09-23T10:03:07.474Z,6.97
2018-09-23T10:05:35.506Z,5.60
2018-09-23T10:08:03.568Z,7.63
2018-09-23T10:10:31.734Z,6.13
2018-09-23T10:12:59.875Z,6.27
2018-09-23T10:15:27.953Z,6.57
2018-09-23T10:17:56.018Z,3.50
2018-09-23T10:20:24.090Z,5.27
2018-09-23T10:22:52.435Z,4.87
2018-09-23T10:25:20.567Z,4.63
2018-09-23T10:27:48.617Z,4.87
2018-09-23T10:30:16.806Z,5.73
2018-09-23T10:32:44.859Z,4.70
2018-09-23T10:35:12.946Z,4.37
2018-09-23T10:37:40.988Z,7.13
2018-09-23T10:40:09.010Z,5.50
2018-09-23T10:42:37.106Z,5.43
2018-09-23T10:45:05.504Z,5.20
2018-09-23T10:47:33.557Z,6.40
2018-09-23T10:50:01.646Z,8.43
2018-09-23T10:52:29.687Z,5.90
2018-09-23T10:54:58.000Z,9.00
2018-09-23T10:57:26.062Z,11.00
2018-09-23T10:59:54.131Z,9.97
2018-09-23T11:02:22.306Z,13.13
2018-09-23T11:04:50.567Z,11.20
2018-09-23T11:07:18.648Z,11.97
2018-09-23T11:09:46.764Z,10.93
2018-09-23T11:12:14.817Z,11.47
2018-09-23T11:14:43.020Z,15.70
2018-09-23T11:17:11.020Z,14.07
2018-09-23T11:19:39.193Z,10.90
2018-09-23T11:22:07.282Z,14.87
2018-09-23T11:24:35.485Z,14.60
2018-09-23T11:27:03.734Z,14.10
2018-09-23T11:29:31.836Z,11.33
2018-09-23T11:31:59.960Z,12.97
2018-09-23T11:34:28.030Z,13.10
2018-09-23T11:36:57.112Z,11.70
2018-09-23T11:39:25.179Z,10.37
2018-09-23T11:41:53.216Z,11.87
2018-09-23T11:44:21.385Z,10.37
2018-09-23T11:49:24.144Z,7.37
2018-09-23T11:51:52.350Z,5.67
2018-09-23T11:54:20.389Z,6.07
2018-09-23T11:56:48.569Z,6.40
2018-09-23T11:59:16.613Z,9.50
2018-09-23T12:01:44.677Z,10.40
2018-09-23T12:04:12.861Z,8.57
2018-09-23T12:06:40.930Z,7.13
2018-09-23T12:09:09.122Z,6.90
2018-09-23T12:11:37.371Z,7.40
2018-09-23T12:14:05.664Z,5.63
2018-09-23T12:16:33.769Z,5.63
2018-09-23T12:19:01.858Z,7.50
2018-09-23T12:21:30.105Z,5.17
2018-09-23T12:23:58.153Z,7.60
2018-09-23T12:26:26.227Z,6.77
2018-09-23T12:28:54.258Z,6.90
2018-09-23T12:31:22.346Z,9.37
2018-09-23T12:33:50.490Z,9.70
2018-09-23T12:36:18.526Z,11.87
2018-09-23T12:38:46.593Z,12.60
2018-09-23T12:41:14.661Z,9.10
2018-09-23T12:43:42.765Z,17.23
2018-09-23T12:46:10.828Z,17.63
2018-09-23T12:48:38.976Z,12.87
2018-09-23T12:51:07.097Z,13.00
2018-09-23T12:53:35.163Z,13.17
2018-09-23T12:56:03.478Z,16.57
2018-09-23T12:58:31.670Z,16.43
2018-09-23T13:00:59.740Z,16.20
2018-09-23T13:03:27.836Z,15.93
2018-09-23T13:05:55.866Z,16.37
2018-09-23T13:08:23.950Z,10.93
2018-09-23T13:10:52.058Z,16.70
2018-09-23T13:13:20.162Z,13.33
2018-09-23T13:15:48.254Z,9.40
2018-09-23T13:18:16.471Z,13.40
2018-09-23T13:20:44.552Z,11.87
2018-09-23T13:23:18.832Z,13.33
2018-09-23T13:25:50.757Z,11.67
2018-09-23T13:28:19.270Z,14.17
2018-09-23T13:30:47.433Z,12.90
2018-09-23T13:33:15.505Z,12.07
2018-09-23T13:35:43.594Z,9.60
2018-09-23T13:38:11.625Z,11.30
2018-09-23T13:40:39.786Z,6.17
2018-09-23T13:43:07.799Z,10.43
2018-09-23T13:45:35.902Z,10.33
2018-09-23T13:48:04.008Z,6.67
2018-09-23T13:50:32.197Z,8.20
2018-09-23T13:53:00.287Z,8.57
2018-09-23T13:55:28.345Z,8.20
2018-09-23T13:57:56.502Z,8.80
2018-09-23T14:00:24.618Z,6.47
2018-09-23T14:02:52.685Z,6.63
2018-09-23T14:05:20.773Z,5.10
2018-09-23T14:07:48.842Z,5.73
2018-09-23T14:10:16.945Z,7.87
2018-09-23T14:12:45.128Z,7.90
2018-09-23T14:15:13.404Z,6.97
2018-09-23T14:17:41.482Z,8.63
2018-09-23T14:20:09.585Z,10.27
2018-09-23T14:22:37.862Z,9.00
2018-09-23T14:25:05.939Z,8.13
2018-09-23T14:27:34.121Z,9.17
2018-09-23T14:30:02.182Z,7.20
2018-09-23T14:32:30.353Z,8.97
2018-09-23T14:34:58.571Z,9.13
2018-09-23T14:37:26.833Z,8.70
2018-09-23T14:39:54.901Z,8.60
2018-09-23T14:42:23.036Z,5.20
2018-09-23T14:44:51.153Z,9.47
2018-09-23T14:47:19.274Z,8.77
2018-09-23T14:49:47.430Z,10.47
2018-09-23T14:52:15.502Z,9.90
2018-09-23T14:54:43.829Z,9.20
2018-09-23T14:57:11.890Z,10.13
2018-09-23T14:59:39.982Z,9.10
2018-09-23T15:02:08.072Z,8.90
2018-09-23T15:04:36.381Z,8.80
2018-09-23T15:07:04.512Z,9.73
2018-09-23T15:09:32.749Z,9.20
2018-09-23T15:12:00.985Z,8.33
2018-09-23T15:14:29.327Z,7.67
2018-09-23T15:16:57.478Z,7.07
2018-09-23T15:19:25.540Z,7.70
2018-09-23T15:21:53.667Z,8.63
2018-09-23T15:24:21.804Z,7.87
2018-09-23T15:26:49.882Z,7.63
2018-09-23T15:29:17.948Z,6.47
2018-09-23T15:31:46.012Z,8.90
2018-09-23T15:34:14.121Z,9.37
2018-09-23T15:36:42.174Z,7.80
2018-09-23T15:39:10.331Z,8.40
2018-09-23T15:41:38.398Z,9.53
2018-09-23T15:44:06.687Z,10.07
2018-09-23T15:46:34.839Z,8.83
2018-09-23T15:49:03.062Z,9.00
2018-09-23T15:51:31.216Z,9.67
2018-09-23T15:53:59.483Z,8.10
2018-09-23T15:56:27.723Z,7.00
2018-09-23T15:58:55.879Z,5.60
2018-09-23T16:01:23.963Z,5.30
2018-09-23T16:03:52.105Z,4.67
2018-09-23T16:06:20.120Z,4.87
2018-09-23T16:08:48.289Z,4.60
2018-09-23T16:11:16.465Z,4.57
2018-09-23T16:13:44.528Z,4.37
2018-09-23T16:16:12.643Z,4.40
2018-09-23T16:18:40.900Z,5.43
2018-09-23T16:21:09.894Z,4.50
2018-09-23T16:23:37.947Z,4.57
2018-09-23T16:26:06.114Z,4.47
2018-09-23T16:28:34.058Z,4.57
2018-09-23T16:31:02.238Z,3.67
2018-09-23T16:33:30.420Z,3.90
2018-09-23T16:35:58.904Z,4.30
2018-09-23T16:38:26.945Z,4.23
2018-09-23T16:40:55.109Z,3.67
2018-09-23T16:43:23.169Z,3.90
2018-09-23T16:45:51.242Z,3.73
2018-09-23T16:48:19.382Z,3.80
2018-09-23T16:50:47.453Z,4.00
2018-09-23T16:53:15.547Z,4.40
2018-09-23T16:55:43.814Z,5.40
2018-09-23T16:58:11.888Z,7.23
2018-09-23T17:00:40.119Z,13.73
2018-09-23T17:03:08.157Z,11.80
2018-09-23T17:05:36.200Z,14.47
2018-09-23T17:08:04.306Z,18.87
2018-09-23T17:10:32.570Z,13.83
2018-09-23T17:13:00.708Z,14.30
2018-09-23T17:15:28.773Z,10.43
2018-09-23T17:17:56.903Z,15.17
2018-09-23T17:20:24.941Z,11.00
2018-09-23T17:22:53.021Z,12.17
2018-09-23T17:25:21.107Z,8.00
2018-09-23T17:27:49.674Z,13.17
2018-09-23T17:30:17.771Z,10.83
2018-09-23T17:32:45.805Z,9.77
2018-09-23T17:35:14.109Z,9.17
2018-09-23T17:37:42.215Z,7.73
2018-09-23T17:40:10.360Z,13.43
2018-09-23T17:42:38.463Z,11.57
2018-09-23T17:45:06.691Z,9.17
2018-09-23T17:47:34.802Z,9.47
2018-09-23T17:50:02.944Z,8.03
2018-09-23T17:52:31.033Z,7.23
2018-09-23T17:54:59.082Z,9.83
2018-09-23T17:57:27.166Z,9.30
2018-09-23T17:59:55.256Z,8.70
2018-09-23T18:02:23.336Z,8.93
2018-09-23T18:04:51.497Z,9.37
2018-09-23T18:07:20.671Z,6.10
2018-09-23T18:09:48.734Z,6.03
2018-09-23T18:12:16.983Z,5.40
2018-09-23T18:14:45.146Z,6.53
2018-09-23T18:17:13.189Z,6.30
2018-09-23T18:19:41.282Z,5.17
2018-09-23T18:22:09.342Z,6.00
2018-09-23T18:24:37.497Z,5.53
2018-09-23T18:27:05.910Z,6.60
2018-09-23T18:30:43.925Z,5.60
2018-09-23T18:33:12.024Z,4.73
2018-09-23T18:35:40.282Z,5.33
2018-09-23T18:38:08.306Z,3.50
2018-09-23T18:40:36.495Z,3.10
2018-09-23T18:43:04.656Z,3.43
2018-09-23T18:45:32.899Z,3.40
2018-09-23T18:48:01.041Z,3.07
2018-09-23T18:50:29.128Z,4.53
2018-09-23T18:52:57.201Z,4.33
2018-09-23T18:55:25.379Z,4.20
2018-09-23T18:57:53.481Z,4.27
2018-09-23T19:00:21.649Z,3.10
2018-09-23T19:02:49.771Z,2.47
2018-09-23T19:05:17.838Z,3.20
2018-09-23T19:07:45.984Z,3.40
2018-09-23T19:10:14.580Z,3.47
2018-09-23T19:12:42.631Z,2.97
2018-09-23T19:15:10.738Z,2.90
2018-09-23T19:17:39.245Z,2.33
2018-09-23T19:20:07.441Z,2.70
2018-09-23T19:22:35.694Z,3.00
2018-09-23T19:25:03.904Z,2.27
2018-09-23T19:27:32.126Z,2.63
2018-09-23T19:30:00.205Z,2.77
2018-09-23T19:32:28.385Z,2.67
2018-09-23T19:34:56.571Z,2.87
2018-09-23T19:37:24.658Z,2.37
2018-09-23T19:39:52.690Z,2.40
2018-09-23T19:42:21.083Z,2.40
2018-09-23T19:44:49.192Z,2.40
2018-09-23T19:47:17.746Z,2.37
2018-09-23T19:49:45.856Z,2.70
2018-09-23T19:52:14.021Z,3.00
2018-09-23T19:54:42.090Z,3.00
2018-09-23T19:57:10.260Z,2.90
2018-09-23T19:59:38.377Z,2.90
2018-09-23T20:02:06.417Z,2.87
2018-09-23T20:04:34.478Z,3.00
2018-09-23T20:07:02.608Z,3.37
2018-09-23T20:09:30.702Z,3.17
2018-09-23T20:11:58.766Z,3.13
2018-09-23T20:14:26.822Z,3.17
2018-09-23T20:16:54.909Z,3.10
2018-09-23T20:19:23.022Z,3.07
2018-09-23T20:21:51.076Z,3.20
2018-09-23T20:24:19.138Z,3.60
2018-09-23T20:26:47.286Z,3.13
2018-09-23T20:29:15.386Z,3.90
2018-09-23T20:31:43.437Z,3.47
2018-09-23T20:34:11.611Z,4.23
2018-09-23T20:36:40.011Z,4.40
2018-09-23T20:39:08.094Z,3.97
2018-09-23T20:41:36.227Z,5.43
2018-09-23T20:44:06.099Z,5.27
2018-09-23T20:46:34.189Z,3.97
2018-09-23T20:49:02.397Z,3.77
2018-09-23T20:51:30.462Z,4.93
2018-09-23T20:53:58.512Z,5.17
2018-09-23T20:56:27.029Z,4.80
2018-09-23T20:58:55.054Z,5.80
2018-09-23T21:01:23.158Z,4.30
2018-09-23T21:03:51.222Z,3.83
2018-09-23T21:06:19.268Z,5.53
2018-09-23T21:08:47.327Z,4.53
2018-09-23T21:11:15.418Z,5.07
2018-09-23T21:13:43.448Z,4.40
2018-09-23T21:16:11.699Z,5.50
2018-09-23T21:18:39.749Z,5.50
2018-09-23T21:21:07.827Z,3.63
2018-09-23T21:23:35.887Z,5.30
2018-09-23T21:26:03.969Z,5.50
2018-09-23T21:28:32.092Z,6.43
2018-09-23T21:31:00.348Z,4.83
2018-09-23T21:33:28.398Z,3.93
2018-09-23T21:35:56.433Z,6.00
2018-09-23T21:38:24.445Z,6.10
2018-09-23T21:40:52.473Z,6.17
2018-09-23T21:43:20.602Z,3.87
2018-09-23T21:45:48.675Z,4.70
2018-09-23T21:48:16.793Z,5.87
2018-09-23T21:50:44.892Z,6.27
2018-09-23T21:53:12.949Z,6.80
2018-09-23T21:55:40.988Z,6.10
2018-09-23T21:58:09.155Z,5.83
2018-09-23T22:00:37.374Z,6.30
2018-09-23T22:03:05.462Z,6.87
2018-09-23T22:05:33.521Z,4.93
2018-09-23T22:08:01.563Z,5.77
2018-09-23T22:10:29.637Z,6.00
2018-09-23T22:12:57.673Z,6.53
2018-09-23T22:15:25.692Z,5.83
2018-09-23T22:17:54.045Z,6.87
2018-09-23T22:20:22.085Z,4.40
2018-09-23T22:22:50.101Z,5.60
2018-09-23T22:25:18.138Z,7.03
2018-09-23T22:27:46.204Z,6.10
2018-09-23T22:30:14.268Z,5.90
2018-09-23T22:32:42.741Z,5.87
2018-09-23T22:35:10.765Z,6.27
2018-09-23T22:37:38.793Z,6.30
2018-09-23T22:40:06.991Z,6.33
2018-09-23T22:42:35.057Z,4.50
2018-09-23T22:45:03.137Z,5.80
2018-09-23T22:47:31.355Z,4.93
2018-09-23T22:49:59.350Z,4.40
2018-09-23T22:52:27.462Z,6.03
2018-09-23T22:54:55.585Z,5.23
2018-09-23T22:57:23.626Z,5.30
2018-09-23T22:59:51.639Z,5.03
2018-09-23T23:02:19.684Z,4.50
2018-09-23T23:04:47.721Z,4.83
2018-09-23T23:07:15.773Z,4.00
2018-09-23T23:09:43.885Z,4.80
2018-09-23T23:12:11.920Z,5.50
2018-09-23T23:14:39.916Z,4.47
2018-09-23T23:17:07.925Z,4.33
2018-09-23T23:19:36.060Z,5.40
2018-09-23T23:22:04.059Z,5.00
2018-09-23T23:24:32.213Z,5.40
2018-09-23T23:27:00.236Z,3.37
2018-09-23T23:29:28.349Z,3.30
2018-09-23T23:31:56.373Z,4.87
2018-09-23T23:34:24.409Z,4.87
2018-09-23T23:36:52.443Z,5.43
2018-09-23T23:39:20.482Z,3.27
2018-09-23T23:41:48.532Z,4.63
2018-09-23T23:44:16.561Z,3.60
2018-09-23T23:46:44.615Z,4.80
2018-09-23T23:49:12.664Z,5.67
2018-09-23T23:51:40.761Z,5.00
2018-09-23T23:54:08.794Z,4.70
2018-09-23T23:56:36.921Z,4.03
2018-09-23T23:59:05.181Z,3.57
